Hebei Shijiazhuang — VRIS2 — position and weather

sailwx.info

Track history (hours):
 
Tides and Currents Weather Stations Pressure Air Temp Water Temp Dewpoint Dewpoint Depression Visibility Wind Speed Wind Dir Waves Ship Positions

Hebei Shijiazhuang

Last reported at 2014-Oct-31 17:03 UTC. Time now 2014-Oct-31 20:10 UTC.
Position S 32°05' E 152°60'.

Length 235 m; draft 14.3 m.

Type: Cargo ship. MMSI: 477899600.

Date/timePositionNaut miles runAvg speedWind from/ knotsBaromVisibWave heightAir tempDewpointWater temp
2014-Oct-31 17:03S 32°05' E 152°60'510.1
2014-Oct-31 16:33S 32°09' E 152°58'10 9.7
2014-Oct-31 15:33S 32°19' E 152°54'19 9.7
2014-Oct-31 13:33S 32°33' E 152°40'9 9.2
2014-Oct-31 12:34S 32°40' E 152°33'9 9.4
2014-Oct-31 11:33S 32°48' E 152°26'9 9.2
2014-Oct-31 10:33S 32°52' E 152°16'10 9.6
2014-Oct-31 09:34S 32°55' E 152°05'10 9.6
2014-Oct-31 08:33S 32°58' E 151°54'6 6.5
2014-Oct-31 07:33S 32°55' E 151°47'2 2.2
2014-Oct-31 06:32S 32°53' E 151°46'0 0.0
2014-Oct-31 05:32S 32°53' E 151°46'0 0.0
2014-Oct-31 04:32S 32°53' E 151°46'0 0.0
2014-Oct-31 03:32S 32°53' E 151°46'0 0.0
2014-Oct-31 02:32S 32°53' E 151°46'0 0.0
2014-Oct-31 01:32S 32°53' E 151°46'0 0.0
2014-Oct-31 00:32S 32°53' E 151°46'0 0.0
2014-Oct-30 23:32S 32°53' E 151°46'0 0.0
2014-Oct-30 22:32S 32°53' E 151°46'0 0.0
2014-Oct-30 21:32S 32°53' E 151°46'0 0.0
2014-Oct-30 20:32S 32°53' E 151°46'0 0.0
2014-Oct-30 19:32S 32°53' E 151°46'0 0.0
2014-Oct-30 18:32S 32°53' E 151°46'0 0.0
2014-Oct-30 17:32S 32°53' E 151°46'0 0.0
2014-Oct-30 16:32S 32°53' E 151°46'0 0.0
2014-Oct-30 15:32S 32°53' E 151°46'0 0.0
2014-Oct-30 14:32S 32°53' E 151°46'0 0.0
2014-Oct-30 13:32S 32°53' E 151°46'0 0.0
2014-Oct-30 12:32S 32°53' E 151°46'0 0.0
2014-Oct-30 11:32S 32°53' E 151°46'0 0.0
2014-Oct-30 10:32S 32°53' E 151°46'0 0.1
2014-Oct-30 09:32S 32°53' E 151°46'0 0.0
2014-Oct-30 08:27S 32°53' E 151°46'3 2.8
2014-Oct-30 07:33S 32°55' E 151°48'5 4.7
2014-Oct-30 06:33S 32°59' E 151°51'8 8.1
2014-Oct-30 05:33S 33°07' E 151°49'2 1.7
2014-Oct-30 04:33S 33°08' E 151°51'1 1.4
2014-Oct-30 03:33S 33°08' E 151°53'1 1.0
2014-Oct-30 02:33S 33°08' E 151°54'1 0.9
2014-Oct-30 01:33S 33°08' E 151°55'1 0.9
2014-Oct-30 00:33S 33°07' E 151°56'1 0.7
2014-Oct-29 23:33S 33°07' E 151°57'0 0.4
2014-Oct-29 22:33S 33°07' E 151°57'0 0.1
2014-Oct-29 21:33S 33°07' E 151°57'0 0.1
2014-Oct-29 20:33S 33°07' E 151°57'0 0.2
2014-Oct-29 19:33S 33°06' E 151°57'0 0.4
2014-Oct-29 18:33S 33°06' E 151°58'1 0.6
2014-Oct-29 17:33S 33°06' E 151°57'7 6.6
2014-Oct-29 16:33S 33°05' E 151°49'7 6.0
2014-Oct-29 15:25S 33°11' E 151°45'7 8.0
2014-Oct-29 14:32S 33°17' E 151°41'0 0.0
2014-Oct-29 01:19S 33°17' E 151°40'0 0.0
2014-Oct-28 12:31S 33°17' E 151°40'0 0.1
2014-Oct-28 11:19S 33°16' E 151°40'0 0.2
2014-Oct-28 10:31S 33°17' E 151°40'0 0.0
2014-Oct-28 09:31S 33°17' E 151°40'0 0.0
2014-Oct-28 08:31S 33°17' E 151°40'0 0.0
2014-Oct-28 07:31S 33°17' E 151°40'0 0.1
2014-Oct-28 06:31S 33°17' E 151°40'0 0.0
2014-Oct-28 05:31S 33°17' E 151°40'0 0.0
2014-Oct-28 04:31S 33°17' E 151°40'0 0.0
2014-Oct-28 03:31S 33°17' E 151°40'0 0.0
2014-Oct-28 02:31S 33°17' E 151°40'0 0.0
2014-Oct-28 00:31S 33°17' E 151°40'0 0.0
2014-Oct-27 11:19S 33°17' E 151°41'0 0.1
2014-Oct-27 10:31S 33°17' E 151°41'30 7.6
2014-Oct-27 06:31S 33°46' E 151°33'3 3.1
2014-Oct-27 05:30S 33°43' E 151°34'3 2.8
2014-Oct-27 04:31S 33°41' E 151°37'8 2.7
2014-Oct-27 01:29S 33°36' E 151°44'2 2.4
2014-Oct-27 00:29S 33°34' E 151°46'20 1.8
2014-Oct-26 13:05S 33°25' E 152°08'5 2.5
2014-Oct-26 11:12S 33°25' E 152°14'4 2.0
2014-Oct-26 09:16S 33°24' E 152°18'2 1.3
2014-Oct-26 07:33S 33°23' E 152°21'1 1.4
2014-Oct-26 06:32S 33°22' E 152°22'1 1.3
2014-Oct-26 05:26S 33°21' E 152°23'1 1.5
2014-Oct-26 04:33S 33°19' E 152°23'2 1.7
2014-Oct-26 03:33S 33°18' E 152°23'2 1.7
2014-Oct-26 02:27S 33°16' E 152°24'2 1.7
2014-Oct-26 01:33S 33°14' E 152°24'2 1.7
2014-Oct-26 00:28S 33°12' E 152°24'2 1.6
2014-Oct-25 23:28S 33°11' E 152°25'1 1.6
2014-Oct-25 22:31S 33°09' E 152°25'2 1.7
2014-Oct-25 21:31S 33°08' E 152°25'2 1.7
2014-Oct-25 20:28S 33°06' E 152°25'1 1.5
2014-Oct-25 19:28S 33°05' E 152°25'1 1.4
2014-Oct-25 18:31S 33°03' E 152°25'2 1.6
2014-Oct-25 17:10S 33°01' E 152°26'1 1.7
2014-Oct-25 16:28S 33°00' E 152°27'1 1.2
2014-Oct-25 15:31S 32°60' E 152°28'1 0.9
2014-Oct-25 14:31S 32°59' E 152°28'1 1.5
2014-Oct-25 13:32S 32°58' E 152°29'2 1.8
2014-Oct-25 12:33S 32°56' E 152°30'4 4.2
2014-Oct-25 11:33S 32°54' E 152°34'1312.9
2014-Oct-25 10:33S 32°55' E 152°50'70 3.3
2014-Oct-24 13:33S 32°33' E 154°09'6 5.6
2014-Oct-24 12:33S 32°28' E 154°06'6 5.3
2014-Oct-24 11:29S 32°23' E 154°04'5 4.9
2014-Oct-24 10:32S 32°18' E 154°02'280 8.2
2014-Oct-23 00:14S 27°39' E 154°20'  
Track history (hours):
 
Tides and Currents Weather Stations Pressure Air Temp Water Temp Dewpoint Dewpoint Depression Visibility Wind Speed Wind Dir Waves Ship Positions

Hebei Shijiazhuang

Last reported at 2014-Oct-31 17:03 UTC. Time now 2014-Oct-31 20:10 UTC.
Position S 32°05' E 152°60'.

Length 235 m; draft 14.3 m.

Type: Cargo ship. MMSI: 477899600.

Date/timePositionNaut miles runAvg speedWind from/ knotsBaromVisibWave heightAir tempDewpointWater temp
2014-Oct-31 17:03S 32°05' E 152°60'510.1
2014-Oct-31 16:33S 32°09' E 152°58'10 9.7
2014-Oct-31 15:33S 32°19' E 152°54'19 9.7
2014-Oct-31 13:33S 32°33' E 152°40'9 9.2
2014-Oct-31 12:34S 32°40' E 152°33'9 9.4
2014-Oct-31 11:33S 32°48' E 152°26'9 9.2
2014-Oct-31 10:33S 32°52' E 152°16'10 9.6
2014-Oct-31 09:34S 32°55' E 152°05'10 9.6
2014-Oct-31 08:33S 32°58' E 151°54'6 6.5
2014-Oct-31 07:33S 32°55' E 151°47'2 2.2
2014-Oct-31 06:32S 32°53' E 151°46'0 0.0
2014-Oct-31 05:32S 32°53' E 151°46'0 0.0
2014-Oct-31 04:32S 32°53' E 151°46'0 0.0
2014-Oct-31 03:32S 32°53' E 151°46'0 0.0
2014-Oct-31 02:32S 32°53' E 151°46'0 0.0
2014-Oct-31 01:32S 32°53' E 151°46'0 0.0
2014-Oct-31 00:32S 32°53' E 151°46'0 0.0
2014-Oct-30 23:32S 32°53' E 151°46'0 0.0
2014-Oct-30 22:32S 32°53' E 151°46'0 0.0
2014-Oct-30 21:32S 32°53' E 151°46'0 0.0
2014-Oct-30 20:32S 32°53' E 151°46'0 0.0
2014-Oct-30 19:32S 32°53' E 151°46'0 0.0
2014-Oct-30 18:32S 32°53' E 151°46'0 0.0
2014-Oct-30 17:32S 32°53' E 151°46'0 0.0
2014-Oct-30 16:32S 32°53' E 151°46'0 0.0
2014-Oct-30 15:32S 32°53' E 151°46'0 0.0
2014-Oct-30 14:32S 32°53' E 151°46'0 0.0
2014-Oct-30 13:32S 32°53' E 151°46'0 0.0
2014-Oct-30 12:32S 32°53' E 151°46'0 0.0
2014-Oct-30 11:32S 32°53' E 151°46'0 0.0
2014-Oct-30 10:32S 32°53' E 151°46'0 0.1
2014-Oct-30 09:32S 32°53' E 151°46'0 0.0
2014-Oct-30 08:27S 32°53' E 151°46'3 2.8
2014-Oct-30 07:33S 32°55' E 151°48'5 4.7
2014-Oct-30 06:33S 32°59' E 151°51'8 8.1
2014-Oct-30 05:33S 33°07' E 151°49'2 1.7
2014-Oct-30 04:33S 33°08' E 151°51'1 1.4
2014-Oct-30 03:33S 33°08' E 151°53'1 1.0
2014-Oct-30 02:33S 33°08' E 151°54'1 0.9
2014-Oct-30 01:33S 33°08' E 151°55'1 0.9
2014-Oct-30 00:33S 33°07' E 151°56'1 0.7
2014-Oct-29 23:33S 33°07' E 151°57'0 0.4
2014-Oct-29 22:33S 33°07' E 151°57'0 0.1
2014-Oct-29 21:33S 33°07' E 151°57'0 0.1
2014-Oct-29 20:33S 33°07' E 151°57'0 0.2
2014-Oct-29 19:33S 33°06' E 151°57'0 0.4
2014-Oct-29 18:33S 33°06' E 151°58'1 0.6
2014-Oct-29 17:33S 33°06' E 151°57'7 6.6
2014-Oct-29 16:33S 33°05' E 151°49'7 6.0
2014-Oct-29 15:25S 33°11' E 151°45'7 8.0
2014-Oct-29 14:32S 33°17' E 151°41'0 0.0
2014-Oct-29 01:19S 33°17' E 151°40'0 0.0
2014-Oct-28 12:31S 33°17' E 151°40'0 0.1
2014-Oct-28 11:19S 33°16' E 151°40'0 0.2
2014-Oct-28 10:31S 33°17' E 151°40'0 0.0
2014-Oct-28 09:31S 33°17' E 151°40'0 0.0
2014-Oct-28 08:31S 33°17' E 151°40'0 0.0
2014-Oct-28 07:31S 33°17' E 151°40'0 0.1
2014-Oct-28 06:31S 33°17' E 151°40'0 0.0
2014-Oct-28 05:31S 33°17' E 151°40'0 0.0
2014-Oct-28 04:31S 33°17' E 151°40'0 0.0
2014-Oct-28 03:31S 33°17' E 151°40'0 0.0
2014-Oct-28 02:31S 33°17' E 151°40'0 0.0
2014-Oct-28 00:31S 33°17' E 151°40'0 0.0
2014-Oct-27 11:19S 33°17' E 151°41'0 0.1
2014-Oct-27 10:31S 33°17' E 151°41'30 7.6
2014-Oct-27 06:31S 33°46' E 151°33'3 3.1
2014-Oct-27 05:30S 33°43' E 151°34'3 2.8
2014-Oct-27 04:31S 33°41' E 151°37'8 2.7
2014-Oct-27 01:29S 33°36' E 151°44'2 2.4
2014-Oct-27 00:29S 33°34' E 151°46'20 1.8
2014-Oct-26 13:05S 33°25' E 152°08'5 2.5
2014-Oct-26 11:12S 33°25' E 152°14'4 2.0
2014-Oct-26 09:16S 33°24' E 152°18'2 1.3
2014-Oct-26 07:33S 33°23' E 152°21'1 1.4
2014-Oct-26 06:32S 33°22' E 152°22'1 1.3
2014-Oct-26 05:26S 33°21' E 152°23'1 1.5
2014-Oct-26 04:33S 33°19' E 152°23'2 1.7
2014-Oct-26 03:33S 33°18' E 152°23'2 1.7
2014-Oct-26 02:27S 33°16' E 152°24'2 1.7
2014-Oct-26 01:33S 33°14' E 152°24'2 1.7
2014-Oct-26 00:28S 33°12' E 152°24'2 1.6
2014-Oct-25 23:28S 33°11' E 152°25'1 1.6
2014-Oct-25 22:31S 33°09' E 152°25'2 1.7
2014-Oct-25 21:31S 33°08' E 152°25'2 1.7
2014-Oct-25 20:28S 33°06' E 152°25'1 1.5
2014-Oct-25 19:28S 33°05' E 152°25'1 1.4
2014-Oct-25 18:31S 33°03' E 152°25'2 1.6
2014-Oct-25 17:10S 33°01' E 152°26'1 1.7
2014-Oct-25 16:28S 33°00' E 152°27'1 1.2
2014-Oct-25 15:31S 32°60' E 152°28'1 0.9
2014-Oct-25 14:31S 32°59' E 152°28'1 1.5
2014-Oct-25 13:32S 32°58' E 152°29'2 1.8
2014-Oct-25 12:33S 32°56' E 152°30'4 4.2
2014-Oct-25 11:33S 32°54' E 152°34'1312.9
2014-Oct-25 10:33S 32°55' E 152°50'70 3.3
2014-Oct-24 13:33S 32°33' E 154°09'6 5.6
2014-Oct-24 12:33S 32°28' E 154°06'6 5.3
2014-Oct-24 11:29S 32°23' E 154°04'5 4.9
2014-Oct-24 10:32S 32°18' E 154°02'280 8.2
2014-Oct-23 00:14S 27°39' E 154°20'  

Dump ship's entire track history